sensor_id;sensor_type;location;lat;lon;timestamp;pressure;altitude;pressure_sealevel;temperature;humidity
4326;BME280;58429;49.826;10.880;2023-03-04T00:00:54;99173;;;0.08;70.97
4326;BME280;58429;49.826;10.880;2023-03-04T00:01:54;99181;;;0.15;70.62
4326;BME280;58429;49.826;10.880;2023-03-04T00:02:54;99173;;;0.14;70.06
4326;BME280;58429;49.826;10.880;2023-03-04T00:03:54;99179;;;0.11;70.43
4326;BME280;58429;49.826;10.880;2023-03-04T00:04:54;99178;;;0.1;70.29
4326;BME280;58429;49.826;10.880;2023-03-04T00:05:54;99178;;;0.08;70.77
4326;BME280;58429;49.826;10.880;2023-03-04T00:06:54;99178;;;0.07;70.45
4326;BME280;58429;49.826;10.880;2023-03-04T00:07:54;99176;;;0.12;70.19
4326;BME280;58429;49.826;10.880;2023-03-04T00:08:54;99183;;;0.1;70.65
4326;BME280;58429;49.826;10.880;2023-03-04T00:09:54;99176;;;0.04;71.19
4326;BME280;58429;49.826;10.880;2023-03-04T00:10:54;99178;;;0.04;70.95
4326;BME280;58429;49.826;10.880;2023-03-04T00:11:54;99179;;;0.01;71.49
4326;BME280;58429;49.826;10.880;2023-03-04T00:12:54;99181;;;-0.02;71.63
4326;BME280;58429;49.826;10.880;2023-03-04T00:13:54;99177;;;-0.08;71.86
4326;BME280;58429;49.826;10.880;2023-03-04T00:14:54;99180;;;-0.05;71.4
4326;BME280;58429;49.826;10.880;2023-03-04T00:15:54;99170;;;-0.1;71.41
4326;BME280;58429;49.826;10.880;2023-03-04T00:16:54;99174;;;-0.09;71.43
4326;BME280;58429;49.826;10.880;2023-03-04T00:17:54;99179;;;-0.11;71.4
4326;BME280;58429;49.826;10.880;2023-03-04T00:18:54;99178;;;-0.11;71.53
4326;BME280;58429;49.826;10.880;2023-03-04T00:19:54;99173;;;-0.12;71.43
4326;BME280;58429;49.826;10.880;2023-03-04T00:20:54;99177;;;-0.12;71.64
4326;BME280;58429;49.826;10.880;2023-03-04T00:21:54;99173;;;-0.14;71.82
4326;BME280;58429;49.826;10.880;2023-03-04T00:22:54;99173;;;-0.19;72.11
4326;BME280;58429;49.826;10.880;2023-03-04T00:23:55;99180;;;-0.19;72.8
4326;BME280;58429;49.826;10.880;2023-03-04T00:24:54;99175;;;-0.19;73
4326;BME280;58429;49.826;10.880;2023-03-04T00:25:54;99179;;;-0.22;72.77
4326;BME280;58429;49.826;10.880;2023-03-04T00:26:54;99174;;;-0.24;72.58
4326;BME280;58429;49.826;10.880;2023-03-04T00:27:54;99183;;;-0.28;72.98
4326;BME280;58429;49.826;10.880;2023-03-04T00:28:54;99184;;;-0.32;72.89
4326;BME280;58429;49.826;10.880;2023-03-04T00:29:54;99190;;;-0.28;72.63
4326;BME280;58429;49.826;10.880;2023-03-04T00:30:54;99182;;;-0.3;72.6
4326;BME280;58429;49.826;10.880;2023-03-04T00:31:54;99186;;;-0.29;72.44
4326;BME280;58429;49.826;10.880;2023-03-04T00:32:54;99186;;;-0.31;72.52
4326;BME280;58429;49.826;10.880;2023-03-04T00:33:54;99186;;;-0.33;72.82
4326;BME280;58429;49.826;10.880;2023-03-04T00:34:54;99182;;;-0.32;72.64
4326;BME280;58429;49.826;10.880;2023-03-04T00:35:54;99187;;;-0.28;72.23
4326;BME280;58429;49.826;10.880;2023-03-04T00:36:54;99186;;;-0.32;72.36
4326;BME280;58429;49.826;10.880;2023-03-04T00:37:54;99184;;;-0.34;72.74
4326;BME280;58429;49.826;10.880;2023-03-04T00:38:54;99189;;;-0.34;72.63
4326;BME280;58429;49.826;10.880;2023-03-04T00:39:54;99188;;;-0.35;72.93
4326;BME280;58429;49.826;10.880;2023-03-04T00:40:54;99182;;;-0.36;72.83
4326;BME280;58429;49.826;10.880;2023-03-04T00:41:54;99183;;;-0.4;73.3
4326;BME280;58429;49.826;10.880;2023-03-04T00:42:54;99183;;;-0.41;73.19
4326;BME280;58429;49.826;10.880;2023-03-04T00:43:54;99184;;;-0.41;73.02
4326;BME280;58429;49.826;10.880;2023-03-04T00:44:54;99184;;;-0.41;72.87
4326;BME280;58429;49.826;10.880;2023-03-04T00:45:54;99183;;;-0.38;72.59
4326;BME280;58429;49.826;10.880;2023-03-04T00:46:54;99180;;;-0.36;72.64
4326;BME280;58429;49.826;10.880;2023-03-04T00:47:54;99184;;;-0.38;72.39
4326;BME280;58429;49.826;10.880;2023-03-04T00:48:54;99181;;;-0.38;72.92
4326;BME280;58429;49.826;10.880;2023-03-04T00:49:54;99188;;;-0.41;72.65
4326;BME280;58429;49.826;10.880;2023-03-04T00:50:54;99180;;;-0.44;72.72
4326;BME280;58429;49.826;10.880;2023-03-04T00:51:54;99182;;;-0.43;72.48
4326;BME280;58429;49.826;10.880;2023-03-04T00:52:54;99187;;;-0.43;72.46
4326;BME280;58429;49.826;10.880;2023-03-04T00:53:54;99184;;;-0.42;72.36
4326;BME280;58429;49.826;10.880;2023-03-04T00:54:54;99176;;;-0.41;72.41
4326;BME280;58429;49.826;10.880;2023-03-04T00:55:54;99179;;;-0.42;72.15
4326;BME280;58429;49.826;10.880;2023-03-04T00:56:54;99186;;;-0.4;71.97
4326;BME280;58429;49.826;10.880;2023-03-04T00:57:54;99179;;;-0.36;71.86
4326;BME280;58429;49.826;10.880;2023-03-04T00:58:54;99181;;;-0.4;71.73
4326;BME280;58429;49.826;10.880;2023-03-04T00:59:54;99185;;;-0.44;71.62
4326;BME280;58429;49.826;10.880;2023-03-04T01:00:54;99183;;;-0.43;71.53
4326;BME280;58429;49.826;10.880;2023-03-04T01:01:54;99174;;;-0.48;71.62
4326;BME280;58429;49.826;10.880;2023-03-04T01:02:54;99177;;;-0.55;72.15
4326;BME280;58429;49.826;10.880;2023-03-04T01:03:54;99177;;;-0.54;72
4326;BME280;58429;49.826;10.880;2023-03-04T01:04:54;99178;;;-0.62;72.26
4326;BME280;58429;49.826;10.880;2023-03-04T01:05:54;99181;;;-0.66;72.42
4326;BME280;58429;49.826;10.880;2023-03-04T01:06:54;99174;;;-0.68;72.56
4326;BME280;58429;49.826;10.880;2023-03-04T01:07:54;99177;;;-0.71;72.42
4326;BME280;58429;49.826;10.880;2023-03-04T01:08:54;99183;;;-0.78;72.29
4326;BME280;58429;49.826;10.880;2023-03-04T01:09:54;99180;;;-0.82;72.32
4326;BME280;58429;49.826;10.880;2023-03-04T01:10:54;99183;;;-0.88;72.74
4326;BME280;58429;49.826;10.880;2023-03-04T01:11:54;99184;;;-0.93;72.73
4326;BME280;58429;49.826;10.880;2023-03-04T01:12:54;99181;;;-0.94;72.64
4326;BME280;58429;49.826;10.880;2023-03-04T01:13:54;99180;;;-0.98;72.7
4326;BME280;58429;49.826;10.880;2023-03-04T01:14:54;99181;;;-1;72.92
4326;BME280;58429;49.826;10.880;2023-03-04T01:15:54;99185;;;-1.02;73.09
4326;BME280;58429;49.826;10.880;2023-03-04T01:16:54;99185;;;-1.07;73.12
4326;BME280;58429;49.826;10.880;2023-03-04T01:17:54;99185;;;-1.06;73.27
4326;BME280;58429;49.826;10.880;2023-03-04T01:18:54;99184;;;-1.08;73.1
4326;BME280;58429;49.826;10.880;2023-03-04T01:19:54;99185;;;-1.09;73.19
4326;BME280;58429;49.826;10.880;2023-03-04T01:20:54;99178;;;-1.09;73.59
4326;BME280;58429;49.826;10.880;2023-03-04T01:21:54;99177;;;-1.11;73.31
4326;BME280;58429;49.826;10.880;2023-03-04T01:22:54;99183;;;-1.12;73.22
4326;BME280;58429;49.826;10.880;2023-03-04T01:23:54;99184;;;-1.12;73.12
4326;BME280;58429;49.826;10.880;2023-03-04T01:24:54;99174;;;-1.13;73.27
4326;BME280;58429;49.826;10.880;2023-03-04T01:25:54;99181;;;-1.17;73.3
4326;BME280;58429;49.826;10.880;2023-03-04T01:26:54;99177;;;-1.19;73.55
4326;BME280;58429;49.826;10.880;2023-03-04T01:27:54;99180;;;-1.19;73.48
4326;BME280;58429;49.826;10.880;2023-03-04T01:28:54;99181;;;-1.22;73.94
4326;BME280;58429;49.826;10.880;2023-03-04T01:29:54;99176;;;-1.23;73.88
4326;BME280;58429;49.826;10.880;2023-03-04T01:30:54;99180;;;-1.26;73.8
4326;BME280;58429;49.826;10.880;2023-03-04T01:31:54;99170;;;-1.21;74.4
4326;BME280;58429;49.826;10.880;2023-03-04T01:32:54;99178;;;-1.25;74.4
4326;BME280;58429;49.826;10.880;2023-03-04T01:33:54;99177;;;-1.24;74.33
4326;BME280;58429;49.826;10.880;2023-03-04T01:34:54;99176;;;-1.2;74.26
4326;BME280;58429;49.826;10.880;2023-03-04T01:35:54;99175;;;-1.18;74.23
4326;BME280;58429;49.826;10.880;2023-03-04T01:36:54;99170;;;-1.15;74.24
4326;BME280;58429;49.826;10.880;2023-03-04T01:37:54;99169;;;-1.11;74.36
4326;BME280;58429;49.826;10.880;2023-03-04T01:38:54;99167;;;-1.07;74.27
4326;BME280;58429;49.826;10.880;2023-03-04T01:39:54;99170;;;-1.06;74.2
4326;BME280;58429;49.826;10.880;2023-03-04T01:40:54;99164;;;-0.99;74.37
4326;BME280;58429;49.826;10.880;2023-03-04T01:41:54;99170;;;-0.99;74.36
4326;BME280;58429;49.826;10.880;2023-03-04T01:42:54;99163;;;-0.98;74.14
4326;BME280;58429;49.826;10.880;2023-03-04T01:43:54;99159;;;-0.97;75.48
4326;BME280;58429;49.826;10.880;2023-03-04T01:44:54;99161;;;-0.95;76.95
4326;BME280;58429;49.826;10.880;2023-03-04T01:45:55;99158;;;-0.92;77.69
4326;BME280;58429;49.826;10.880;2023-03-04T01:46:54;99165;;;-0.91;77.29
4326;BME280;58429;49.826;10.880;2023-03-04T01:47:54;99159;;;-0.87;77.99
4326;BME280;58429;49.826;10.880;2023-03-04T01:48:54;99159;;;-0.81;77.7
4326;BME280;58429;49.826;10.880;2023-03-04T01:49:54;99157;;;-0.84;77.98
4326;BME280;58429;49.826;10.880;2023-03-04T01:50:54;99151;;;-0.74;77.9
4326;BME280;58429;49.826;10.880;2023-03-04T01:51:54;99154;;;-0.72;77.43
4326;BME280;58429;49.826;10.880;2023-03-04T01:52:54;99145;;;-0.68;77.13
4326;BME280;58429;49.826;10.880;2023-03-04T01:53:54;99148;;;-0.65;77.15
4326;BME280;58429;49.826;10.880;2023-03-04T01:54:54;99151;;;-0.61;77.04
4326;BME280;58429;49.826;10.880;2023-03-04T01:55:55;99147;;;-0.58;76.57
4326;BME280;58429;49.826;10.880;2023-03-04T01:56:54;99146;;;-0.59;76.34
4326;BME280;58429;49.826;10.880;2023-03-04T01:57:54;99144;;;-0.56;76.88
4326;BME280;58429;49.826;10.880;2023-03-04T01:59:11;99144;;;-0.57;77.29
4326;BME280;58429;49.826;10.880;2023-03-04T02:00:14;99137;;;-0.55;77.07
4326;BME280;58429;49.826;10.880;2023-03-04T02:00:54;99144;;;-0.51;76.95
4326;BME280;58429;49.826;10.880;2023-03-04T02:01:55;99141;;;-0.48;77.12
4326;BME280;58429;49.826;10.880;2023-03-04T02:02:56;99143;;;-0.44;76.85
4326;BME280;58429;49.826;10.880;2023-03-04T02:03:54;99136;;;-0.43;76.71
4326;BME280;58429;49.826;10.880;2023-03-04T02:04:54;99133;;;-0.43;77.11
4326;BME280;58429;49.826;10.880;2023-03-04T02:05:54;99134;;;-0.42;76.98
4326;BME280;58429;49.826;10.880;2023-03-04T02:06:55;99132;;;-0.39;77.02
4326;BME280;58429;49.826;10.880;2023-03-04T02:07:55;99131;;;-0.38;77.58
4326;BME280;58429;49.826;10.880;2023-03-04T02:08:54;99125;;;-0.41;78.06
4326;BME280;58429;49.826;10.880;2023-03-04T02:09:54;99131;;;-0.4;77.58
4326;BME280;58429;49.826;10.880;2023-03-04T02:10:54;99123;;;-0.37;77.25
4326;BME280;58429;49.826;10.880;2023-03-04T02:11:54;99126;;;-0.34;77.27
4326;BME280;58429;49.826;10.880;2023-03-04T02:12:54;99125;;;-0.34;77.06
4326;BME280;58429;49.826;10.880;2023-03-04T02:13:54;99118;;;-0.3;77.25
4326;BME280;58429;49.826;10.880;2023-03-04T02:14:54;99118;;;-0.3;77.08
4326;BME280;58429;49.826;10.880;2023-03-04T02:15:54;99120;;;-0.24;77.11
4326;BME280;58429;49.826;10.880;2023-03-04T02:16:54;99127;;;-0.24;77.41
4326;BME280;58429;49.826;10.880;2023-03-04T02:17:54;99122;;;-0.25;77.31
4326;BME280;58429;49.826;10.880;2023-03-04T02:18:54;99126;;;-0.22;77.21
4326;BME280;58429;49.826;10.880;2023-03-04T02:19:55;99120;;;-0.22;77.24
4326;BME280;58429;49.826;10.880;2023-03-04T02:20:56;99125;;;-0.19;76.99
4326;BME280;58429;49.826;10.880;2023-03-04T02:21:54;99122;;;-0.19;77.16
4326;BME280;58429;49.826;10.880;2023-03-04T02:22:56;99120;;;-0.19;77.15
4326;BME280;58429;49.826;10.880;2023-03-04T02:23:56;99125;;;-0.16;77.49
4326;BME280;58429;49.826;10.880;2023-03-04T02:24:55;99120;;;-0.18;77.88
4326;BME280;58429;49.826;10.880;2023-03-04T02:26:06;99118;;;-0.15;77.66
4326;BME280;58429;49.826;10.880;2023-03-04T02:26:54;99119;;;-0.15;77.74
4326;BME280;58429;49.826;10.880;2023-03-04T02:27:54;99114;;;-0.16;78.25
4326;BME280;58429;49.826;10.880;2023-03-04T02:28:55;99117;;;-0.14;77.74
4326;BME280;58429;49.826;10.880;2023-03-04T02:29:54;99118;;;-0.15;77.26
4326;BME280;58429;49.826;10.880;2023-03-04T02:30:54;99117;;;-0.14;77.12
4326;BME280;58429;49.826;10.880;2023-03-04T02:31:54;99119;;;-0.16;77.48
4326;BME280;58429;49.826;10.880;2023-03-04T02:32:54;99112;;;-0.17;77.76
4326;BME280;58429;49.826;10.880;2023-03-04T02:33:55;99110;;;-0.16;77.82
4326;BME280;58429;49.826;10.880;2023-03-04T02:34:54;99109;;;-0.18;77.97
4326;BME280;58429;49.826;10.880;2023-03-04T02:35:54;99104;;;-0.19;78.42
4326;BME280;58429;49.826;10.880;2023-03-04T02:36:54;99111;;;-0.17;78.18
4326;BME280;58429;49.826;10.880;2023-03-04T02:37:54;99112;;;-0.19;78.9
4326;BME280;58429;49.826;10.880;2023-03-04T02:38:55;99103;;;-0.21;79.01
4326;BME280;58429;49.826;10.880;2023-03-04T02:39:54;99106;;;-0.2;78.57
4326;BME280;58429;49.826;10.880;2023-03-04T02:40:54;99103;;;-0.19;78.4
4326;BME280;58429;49.826;10.880;2023-03-04T02:41:55;99100;;;-0.21;79.02
4326;BME280;58429;49.826;10.880;2023-03-04T02:42:55;99107;;;-0.25;79.62
4326;BME280;58429;49.826;10.880;2023-03-04T02:43:54;99099;;;-0.24;78.78
4326;BME280;58429;49.826;10.880;2023-03-04T02:44:58;99101;;;-0.21;78.58
4326;BME280;58429;49.826;10.880;2023-03-04T02:45:54;99101;;;-0.23;78.66
4326;BME280;58429;49.826;10.880;2023-03-04T02:46:55;99100;;;-0.21;78.69
4326;BME280;58429;49.826;10.880;2023-03-04T02:47:54;99109;;;-0.18;78.53
4326;BME280;58429;49.826;10.880;2023-03-04T02:48:54;99097;;;-0.2;78.26
4326;BME280;58429;49.826;10.880;2023-03-04T02:49:54;99105;;;-0.17;78.73
4326;BME280;58429;49.826;10.880;2023-03-04T02:50:54;99099;;;-0.2;78.19
4326;BME280;58429;49.826;10.880;2023-03-04T02:51:57;99102;;;-0.16;78.45
4326;BME280;58429;49.826;10.880;2023-03-04T02:52:54;99100;;;-0.16;78.29
4326;BME280;58429;49.826;10.880;2023-03-04T02:53:54;99104;;;-0.14;78.07
4326;BME280;58429;49.826;10.880;2023-03-04T02:54:54;99105;;;-0.12;77.92
4326;BME280;58429;49.826;10.880;2023-03-04T02:55:54;99102;;;-0.11;78.1
4326;BME280;58429;49.826;10.880;2023-03-04T02:56:56;99098;;;-0.13;78.17
4326;BME280;58429;49.826;10.880;2023-03-04T02:57:54;99096;;;-0.11;79.11
4326;BME280;58429;49.826;10.880;2023-03-04T02:58:54;99096;;;-0.09;79.23
4326;BME280;58429;49.826;10.880;2023-03-04T02:59:54;99095;;;-0.13;79.11
4326;BME280;58429;49.826;10.880;2023-03-04T03:00:54;99101;;;-0.12;78.91
4326;BME280;58429;49.826;10.880;2023-03-04T03:01:55;99100;;;-0.12;78.56
4326;BME280;58429;49.826;10.880;2023-03-04T03:02:55;99094;;;-0.1;78.74
4326;BME280;58429;49.826;10.880;2023-03-04T03:03:54;99101;;;-0.09;78.84
4326;BME280;58429;49.826;10.880;2023-03-04T03:04:54;99099;;;-0.11;78.84
4326;BME280;58429;49.826;10.880;2023-03-04T03:05:54;99102;;;-0.1;78.94
4326;BME280;58429;49.826;10.880;2023-03-04T03:06:54;99093;;;-0.1;79.27
4326;BME280;58429;49.826;10.880;2023-03-04T03:07:54;99093;;;-0.07;79.19
4326;BME280;58429;49.826;10.880;2023-03-04T03:08:54;99093;;;-0.04;79.01
4326;BME280;58429;49.826;10.880;2023-03-04T03:09:54;99099;;;-0.02;78.83
4326;BME280;58429;49.826;10.880;2023-03-04T03:10:54;99093;;;-0.01;78.68
4326;BME280;58429;49.826;10.880;2023-03-04T03:11:54;99089;;;0.01;78.46
4326;BME280;58429;49.826;10.880;2023-03-04T03:12:54;99093;;;0.02;78.3
4326;BME280;58429;49.826;10.880;2023-03-04T03:13:54;99086;;;0.01;78.52
4326;BME280;58429;49.826;10.880;2023-03-04T03:14:54;99096;;;0.06;78.31
4326;BME280;58429;49.826;10.880;2023-03-04T03:15:54;99091;;;0.03;78.94
4326;BME280;58429;49.826;10.880;2023-03-04T03:16:54;99093;;;0.01;79.81
4326;BME280;58429;49.826;10.880;2023-03-04T03:17:54;99094;;;0.03;79.7
4326;BME280;58429;49.826;10.880;2023-03-04T03:18:54;99093;;;0.01;79.45
4326;BME280;58429;49.826;10.880;2023-03-04T03:19:54;99089;;;-0.02;79.4
4326;BME280;58429;49.826;10.880;2023-03-04T03:20:54;99095;;;0.05;79.42
4326;BME280;58429;49.826;10.880;2023-03-04T03:21:54;99092;;;0.03;79.59
4326;BME280;58429;49.826;10.880;2023-03-04T03:22:54;99093;;;0.03;79.84
4326;BME280;58429;49.826;10.880;2023-03-04T03:23:54;99093;;;-0.01;80.37
4326;BME280;58429;49.826;10.880;2023-03-04T03:24:54;99088;;;-0.02;79.76
4326;BME280;58429;49.826;10.880;2023-03-04T03:25:54;99090;;;-0.03;80.13
4326;BME280;58429;49.826;10.880;2023-03-04T03:26:54;99088;;;-0.02;80.1
4326;BME280;58429;49.826;10.880;2023-03-04T03:27:54;99090;;;0;79.58
4326;BME280;58429;49.826;10.880;2023-03-04T03:28:54;99088;;;-0.01;79.34
4326;BME280;58429;49.826;10.880;2023-03-04T03:29:55;99085;;;-0.06;79.72
4326;BME280;58429;49.826;10.880;2023-03-04T03:30:54;99090;;;-0.04;79.88
4326;BME280;58429;49.826;10.880;2023-03-04T03:31:54;99083;;;-0.03;79.77
4326;BME280;58429;49.826;10.880;2023-03-04T03:32:54;99082;;;-0.04;80.25
4326;BME280;58429;49.826;10.880;2023-03-04T03:33:54;99085;;;-0.05;80.64
4326;BME280;58429;49.826;10.880;2023-03-04T03:34:54;99082;;;-0.09;80.74
4326;BME280;58429;49.826;10.880;2023-03-04T03:35:54;99085;;;-0.12;80.56
4326;BME280;58429;49.826;10.880;2023-03-04T03:36:54;99088;;;-0.11;80.85
4326;BME280;58429;49.826;10.880;2023-03-04T03:37:54;99082;;;-0.11;80.78
4326;BME280;58429;49.826;10.880;2023-03-04T03:38:54;99081;;;-0.14;80.73
4326;BME280;58429;49.826;10.880;2023-03-04T03:39:54;99087;;;-0.13;80.63
4326;BME280;58429;49.826;10.880;2023-03-04T03:40:54;99087;;;-0.12;80.52
4326;BME280;58429;49.826;10.880;2023-03-04T03:41:54;99086;;;-0.14;80.46
4326;BME280;58429;49.826;10.880;2023-03-04T03:42:54;99088;;;-0.14;80.83
4326;BME280;58429;49.826;10.880;2023-03-04T03:43:55;99085;;;-0.15;80.45
4326;BME280;58429;49.826;10.880;2023-03-04T03:44:54;99089;;;-0.15;80.59
4326;BME280;58429;49.826;10.880;2023-03-04T03:45:55;99088;;;-0.15;80.4
4326;BME280;58429;49.826;10.880;2023-03-04T03:46:55;99086;;;-0.11;80.37
4326;BME280;58429;49.826;10.880;2023-03-04T03:47:54;99092;;;-0.11;80.65
4326;BME280;58429;49.826;10.880;2023-03-04T03:48:54;99092;;;-0.13;80.8
4326;BME280;58429;49.826;10.880;2023-03-04T03:49:54;99096;;;-0.13;80.92
4326;BME280;58429;49.826;10.880;2023-03-04T03:50:55;99093;;;-0.12;81.01
4326;BME280;58429;49.826;10.880;2023-03-04T03:51:55;99092;;;-0.15;80.92
4326;BME280;58429;49.826;10.880;2023-03-04T03:52:55;99085;;;-0.16;81.08
4326;BME280;58429;49.826;10.880;2023-03-04T03:53:55;99096;;;-0.16;81.46
4326;BME280;58429;49.826;10.880;2023-03-04T03:54:54;99095;;;-0.15;81.22
4326;BME280;58429;49.826;10.880;2023-03-04T03:55:54;99096;;;-0.15;80.92
4326;BME280;58429;49.826;10.880;2023-03-04T03:56:54;99094;;;-0.16;81.31
4326;BME280;58429;49.826;10.880;2023-03-04T03:57:54;99096;;;-0.16;81.5
4326;BME280;58429;49.826;10.880;2023-03-04T03:58:55;99094;;;-0.16;81.39
4326;BME280;58429;49.826;10.880;2023-03-04T03:59:55;99101;;;-0.16;81.28
4326;BME280;58429;49.826;10.880;2023-03-04T04:00:55;99098;;;-0.16;81.39
4326;BME280;58429;49.826;10.880;2023-03-04T04:01:55;99098;;;-0.13;80.97
4326;BME280;58429;49.826;10.880;2023-03-04T04:02:55;99103;;;-0.11;81.08
4326;BME280;58429;49.826;10.880;2023-03-04T04:03:54;99100;;;-0.09;81.06
4326;BME280;58429;49.826;10.880;2023-03-04T04:04:55;99100;;;-0.09;80.8
4326;BME280;58429;49.826;10.880;2023-03-04T04:05:55;99091;;;-0.05;80.68
4326;BME280;58429;49.826;10.880;2023-03-04T04:06:55;99094;;;-0.1;80.68
4326;BME280;58429;49.826;10.880;2023-03-04T04:07:55;99101;;;-0.07;80.43
4326;BME280;58429;49.826;10.880;2023-03-04T04:08:55;99090;;;-0.06;80.24
4326;BME280;58429;49.826;10.880;2023-03-04T04:09:55;99092;;;-0.06;80.68
4326;BME280;58429;49.826;10.880;2023-03-04T04:10:55;99096;;;-0.06;80.77
4326;BME280;58429;49.826;10.880;2023-03-04T04:11:55;99095;;;-0.07;81.34
4326;BME280;58429;49.826;10.880;2023-03-04T04:12:55;99095;;;-0.08;81.2
4326;BME280;58429;49.826;10.880;2023-03-04T04:13:55;99094;;;-0.08;81.07
4326;BME280;58429;49.826;10.880;2023-03-04T04:14:55;99099;;;-0.09;80.81
4326;BME280;58429;49.826;10.880;2023-03-04T04:15:55;99097;;;-0.07;80.83
4326;BME280;58429;49.826;10.880;2023-03-04T04:16:55;99102;;;-0.09;80.82
4326;BME280;58429;49.826;10.880;2023-03-04T04:17:55;99099;;;-0.05;80.68
4326;BME280;58429;49.826;10.880;2023-03-04T04:18:55;99095;;;-0.07;81.07
4326;BME280;58429;49.826;10.880;2023-03-04T04:19:55;99092;;;-0.01;81.03
4326;BME280;58429;49.826;10.880;2023-03-04T04:20:55;99092;;;-0.03;80.95
4326;BME280;58429;49.826;10.880;2023-03-04T04:21:55;99095;;;-0.02;81.01
4326;BME280;58429;49.826;10.880;2023-03-04T04:22:55;99099;;;-0.03;80.98
4326;BME280;58429;49.826;10.880;2023-03-04T04:23:55;99093;;;-0.02;81.22
4326;BME280;58429;49.826;10.880;2023-03-04T04:24:55;99095;;;-0.05;81.06
4326;BME280;58429;49.826;10.880;2023-03-04T04:25:55;99095;;;-0.05;81.14
4326;BME280;58429;49.826;10.880;2023-03-04T04:26:55;99095;;;-0.04;81.24
4326;BME280;58429;49.826;10.880;2023-03-04T04:27:55;99099;;;-0.04;81.69
4326;BME280;58429;49.826;10.880;2023-03-04T04:28:55;99104;;;-0.05;81.64
4326;BME280;58429;49.826;10.880;2023-03-04T04:29:55;99100;;;-0.1;82.08
4326;BME280;58429;49.826;10.880;2023-03-04T04:30:55;99104;;;-0.09;82.14
4326;BME280;58429;49.826;10.880;2023-03-04T04:31:55;99100;;;-0.09;82.28
4326;BME280;58429;49.826;10.880;2023-03-04T04:32:55;99103;;;-0.13;82.51
4326;BME280;58429;49.826;10.880;2023-03-04T04:33:55;99099;;;-0.1;82.35
4326;BME280;58429;49.826;10.880;2023-03-04T04:34:55;99105;;;-0.1;82.52
4326;BME280;58429;49.826;10.880;2023-03-04T04:35:55;99103;;;-0.11;82.45
4326;BME280;58429;49.826;10.880;2023-03-04T04:36:55;99106;;;-0.1;82.23
4326;BME280;58429;49.826;10.880;2023-03-04T04:37:55;99106;;;-0.1;82.27
4326;BME280;58429;49.826;10.880;2023-03-04T04:38:55;99104;;;-0.09;82.36
4326;BME280;58429;49.826;10.880;2023-03-04T04:39:55;99108;;;-0.11;81.99
4326;BME280;58429;49.826;10.880;2023-03-04T04:40:55;99101;;;-0.05;81.89
4326;BME280;58429;49.826;10.880;2023-03-04T04:41:55;99100;;;-0.03;82.19
4326;BME280;58429;49.826;10.880;2023-03-04T04:42:56;99105;;;-0.05;82.18
4326;BME280;58429;49.826;10.880;2023-03-04T04:43:55;99108;;;-0.04;82.19
4326;BME280;58429;49.826;10.880;2023-03-04T04:44:55;99110;;;-0.08;82.25
4326;BME280;58429;49.826;10.880;2023-03-04T04:45:55;99104;;;0;82.15
4326;BME280;58429;49.826;10.880;2023-03-04T04:46:55;99112;;;-0.03;82.04
4326;BME280;58429;49.826;10.880;2023-03-04T04:47:55;99105;;;0.01;81.91
4326;BME280;58429;49.826;10.880;2023-03-04T04:48:55;99099;;;0.01;81.85
4326;BME280;58429;49.826;10.880;2023-03-04T04:49:55;99107;;;0.01;81.88
4326;BME280;58429;49.826;10.880;2023-03-04T04:50:55;99107;;;0.05;81.97
4326;BME280;58429;49.826;10.880;2023-03-04T04:51:55;99105;;;0.03;81.93
4326;BME280;58429;49.826;10.880;2023-03-04T04:52:55;99108;;;0.03;82.02
4326;BME280;58429;49.826;10.880;2023-03-04T04:53:55;99096;;;0.06;81.97
4326;BME280;58429;49.826;10.880;2023-03-04T04:54:55;99101;;;0.06;82.08
4326;BME280;58429;49.826;10.880;2023-03-04T04:55:55;99095;;;0.03;82.15
4326;BME280;58429;49.826;10.880;2023-03-04T04:56:55;99097;;;0.05;82.18
4326;BME280;58429;49.826;10.880;2023-03-04T04:57:55;99096;;;0.04;82.29
4326;BME280;58429;49.826;10.880;2023-03-04T04:58:56;99094;;;0.05;82.41
4326;BME280;58429;49.826;10.880;2023-03-04T04:59:55;99098;;;0.01;82.57
4326;BME280;58429;49.826;10.880;2023-03-04T05:00:55;99094;;;0.03;82.37
4326;BME280;58429;49.826;10.880;2023-03-04T05:01:55;99093;;;0.09;82.14
4326;BME280;58429;49.826;10.880;2023-03-04T05:02:55;99093;;;0.06;82.48
4326;BME280;58429;49.826;10.880;2023-03-04T05:03:55;99096;;;0.05;82.22
4326;BME280;58429;49.826;10.880;2023-03-04T05:04:55;99096;;;0.06;82.15
4326;BME280;58429;49.826;10.880;2023-03-04T05:05:55;99098;;;0.1;81.78
4326;BME280;58429;49.826;10.880;2023-03-04T05:06:55;99098;;;0.1;81.64
4326;BME280;58429;49.826;10.880;2023-03-04T05:07:55;99097;;;0.11;81.58
4326;BME280;58429;49.826;10.880;2023-03-04T05:08:55;99100;;;0.11;81.6
4326;BME280;58429;49.826;10.880;2023-03-04T05:09:55;99091;;;0.12;81.59
4326;BME280;58429;49.826;10.880;2023-03-04T05:10:55;99087;;;0.12;81.68
4326;BME280;58429;49.826;10.880;2023-03-04T05:11:55;99097;;;0.14;81.58
4326;BME280;58429;49.826;10.880;2023-03-04T05:12:55;99097;;;0.18;81.46
4326;BME280;58429;49.826;10.880;2023-03-04T05:13:55;99098;;;0.16;81.63
4326;BME280;58429;49.826;10.880;2023-03-04T05:14:55;99090;;;0.15;81.64
4326;BME280;58429;49.826;10.880;2023-03-04T05:15:55;99097;;;0.17;81.67
4326;BME280;58429;49.826;10.880;2023-03-04T05:16:55;99093;;;0.11;81.65
4326;BME280;58429;49.826;10.880;2023-03-04T05:17:55;99099;;;0.14;81.47
4326;BME280;58429;49.826;10.880;2023-03-04T05:18:55;99093;;;0.15;81.45
4326;BME280;58429;49.826;10.880;2023-03-04T05:19:55;99101;;;0.17;81.55
4326;BME280;58429;49.826;10.880;2023-03-04T05:20:55;99097;;;0.21;81.38
4326;BME280;58429;49.826;10.880;2023-03-04T05:21:55;99094;;;0.22;81.35
4326;BME280;58429;49.826;10.880;2023-03-04T05:22:55;99093;;;0.24;81.16
4326;BME280;58429;49.826;10.880;2023-03-04T05:23:55;99098;;;0.25;81.1
4326;BME280;58429;49.826;10.880;2023-03-04T05:24:55;99095;;;0.29;81.16
4326;BME280;58429;49.826;10.880;2023-03-04T05:25:55;99099;;;0.31;80.99
4326;BME280;58429;49.826;10.880;2023-03-04T05:26:55;99100;;;0.34;80.85
4326;BME280;58429;49.826;10.880;2023-03-04T05:27:55;99099;;;0.34;80.78
4326;BME280;58429;49.826;10.880;2023-03-04T05:28:55;99097;;;0.33;80.73
4326;BME280;58429;49.826;10.880;2023-03-04T05:29:55;99097;;;0.36;80.67
4326;BME280;58429;49.826;10.880;2023-03-04T05:30:55;99096;;;0.37;80.67
4326;BME280;58429;49.826;10.880;2023-03-04T05:31:55;99100;;;0.39;80.64
4326;BME280;58429;49.826;10.880;2023-03-04T05:32:55;99098;;;0.41;80.57